Time;durP1;ratioP1;P1;durP2;ratioP2;P2;SDS_P1;SDS_P2;PMS_P1;PMS_P2;Temp;Humidity;BMP_temperature;BMP_pressure;BME280_temperature;BME280_humidity;BME280_pressure;Samples;Min_cycle;Max_cycle;Signal;HPM_P1;HPM_P2
2022/07/28 00:00:04;;;;;;;2.70;1.60;;;13.30;99.90;;;;;;5069804;28;20477;-75
2022/07/28 00:02:48;;;;;;;4.93;1.50;;;13.20;99.90;;;;;;5073796;28;20900;-75
2022/07/28 00:05:33;;;;;;;4.80;1.70;;;13.20;99.90;;;;;;5066467;28;20445;-74
2022/07/28 00:08:17;;;;;;;6.32;1.95;;;13.20;99.90;;;;;;5060833;28;20448;-75
2022/07/28 00:11:01;;;;;;;4.15;1.60;;;13.20;99.90;;;;;;5065157;28;20398;-74
2022/07/28 00:13:45;;;;;;;3.30;1.60;;;13.20;99.90;;;;;;5059619;28;20464;-75
2022/07/28 00:16:29;;;;;;;4.73;1.60;;;13.20;99.90;;;;;;5067648;28;20426;-75
2022/07/28 00:19:13;;;;;;;4.77;1.70;;;13.20;99.90;;;;;;5069386;28;20435;-75
2022/07/28 00:21:57;;;;;;;4.90;1.83;;;13.20;99.90;;;;;;5070134;28;20422;-75
2022/07/28 00:24:41;;;;;;;4.60;1.90;;;13.20;99.90;;;;;;5064888;28;20391;-74
2022/07/28 00:27:25;;;;;;;3.63;1.90;;;13.10;99.90;;;;;;5068286;28;20386;-73
2022/07/28 00:30:10;;;;;;;3.90;1.63;;;13.00;99.90;;;;;;5083936;28;20483;-74
2022/07/28 00:32:54;;;;;;;5.95;2.03;;;12.90;99.90;;;;;;5062811;28;20490;-76
2022/07/28 00:35:38;;;;;;;6.15;2.40;;;12.80;99.90;;;;;;5075664;28;20406;-74
2022/07/28 00:38:22;;;;;;;6.17;2.13;;;12.70;99.90;;;;;;5067052;28;20494;-74
2022/07/28 00:41:10;;;;;;;3.58;1.88;;;12.60;99.90;;;;;;5081712;28;20413;-74
2022/07/28 00:43:54;;;;;;;3.97;2.35;;;12.60;99.90;;;;;;5065612;28;20511;-75
2022/07/28 00:46:38;;;;;;;5.38;2.40;;;12.60;99.90;;;;;;5062144;28;20380;-74
2022/07/28 00:49:22;;;;;;;3.30;2.22;;;12.60;99.90;;;;;;5053199;28;20444;-74
2022/07/28 00:52:08;;;;;;;4.75;2.15;;;12.50;99.90;;;;;;5063020;28;20448;-74
2022/07/28 00:54:52;;;;;;;4.82;2.20;;;12.40;99.90;;;;;;5063075;28;20443;-75
2022/07/28 00:57:36;;;;;;;4.40;2.22;;;12.40;99.90;;;;;;5078136;28;20412;-74
2022/07/28 01:00:21;;;;;;;8.38;2.53;;;12.30;99.90;;;;;;5071702;28;20916;-75
2022/07/28 01:03:05;;;;;;;4.15;2.40;;;12.40;99.90;;;;;;5075617;28;20504;-74
2022/07/28 01:06:04;;;;;;;4.43;2.23;;;12.40;99.90;;;;;;5069706;28;20530;-73
2022/07/28 01:09:09;;;;;;;6.13;2.28;;;12.40;99.90;;;;;;5060486;28;20478;-76
2022/07/28 01:11:56;;;;;;;4.43;2.30;;;12.50;99.90;;;;;;5068540;28;20411;-75
2022/07/28 01:14:49;;;;;;;8.60;2.67;;;12.50;99.90;;;;;;5058199;28;20454;-74
2022/07/28 01:17:58;;;;;;;6.13;2.45;;;12.40;99.90;;;;;;5063776;28;20399;-75
2022/07/28 01:21:06;;;;;;;4.82;2.47;;;12.30;99.90;;;;;;5065190;28;20416;-75
2022/07/28 01:24:15;;;;;;;4.40;2.53;;;12.30;99.90;;;;;;5068177;28;20420;-74
2022/07/28 01:27:35;;;;;;;4.65;2.40;;;12.20;99.90;;;;;;5068879;28;20390;-74
2022/07/28 01:30:34;;;;;;;8.48;2.47;;;12.10;99.90;;;;;;5072616;28;20403;-73
2022/07/28 01:33:24;;;;;;;8.90;2.50;;;12.10;99.90;;;;;;5063471;28;20413;-75
2022/07/28 01:36:13;;;;;;;6.93;2.50;;;12.10;99.90;;;;;;5061449;28;20413;-74
2022/07/28 01:38:59;;;;;;;5.32;2.58;;;12.00;99.90;;;;;;5065308;28;20972;-74
2022/07/28 01:41:45;;;;;;;6.05;2.50;;;12.00;99.90;;;;;;5072242;28;20457;-75
2022/07/28 01:44:33;;;;;;;3.73;2.20;;;12.00;99.90;;;;;;5065942;28;20469;-76
2022/07/28 01:47:20;;;;;;;4.63;2.47;;;12.00;99.90;;;;;;5072957;28;20432;-76
2022/07/28 01:50:08;;;;;;;5.45;2.35;;;12.00;99.90;;;;;;5068800;28;20407;-74
2022/07/28 01:52:55;;;;;;;5.60;2.30;;;11.90;99.90;;;;;;5069952;28;20421;-75
2022/07/28 01:55:42;;;;;;;6.15;2.50;;;11.90;99.90;;;;;;5054588;28;20424;-75
2022/07/28 01:58:28;;;;;;;7.97;2.15;;;11.90;99.90;;;;;;5062657;28;20559;-77
2022/07/28 02:01:13;;;;;;;4.45;2.30;;;11.90;99.90;;;;;;5066373;28;20476;-74
2022/07/28 02:03:59;;;;;;;4.88;2.20;;;11.80;99.90;;;;;;5078144;28;20427;-74
2022/07/28 02:06:45;;;;;;;4.28;2.25;;;11.80;99.90;;;;;;5063747;28;20399;-73
2022/07/28 02:09:33;;;;;;;6.50;2.43;;;11.80;99.90;;;;;;5077296;28;20387;-74
2022/07/28 02:12:18;;;;;;;4.03;2.30;;;11.80;99.90;;;;;;5065837;28;20419;-73
2022/07/28 02:15:05;;;;;;;3.27;2.00;;;11.80;99.90;;;;;;5072881;28;20441;-74
2022/07/28 02:17:51;;;;;;;3.65;2.33;;;11.80;99.90;;;;;;5059878;28;20420;-74
2022/07/28 02:20:36;;;;;;;5.28;2.40;;;11.80;99.90;;;;;;5076052;28;20793;-74
2022/07/28 02:23:22;;;;;;;4.65;2.50;;;11.70;99.90;;;;;;5068804;28;20538;-75
2022/07/28 02:26:09;;;;;;;5.88;2.50;;;11.60;99.90;;;;;;5072437;28;20890;-74
2022/07/28 02:28:56;;;;;;;8.52;2.20;;;11.50;99.90;;;;;;5069130;28;20404;-75
2022/07/28 02:31:51;;;;;;;7.25;2.53;;;11.50;99.90;;;;;;5066690;28;20398;-74
2022/07/28 02:34:37;;;;;;;5.35;2.42;;;11.60;99.90;;;;;;5079823;28;20486;-74
2022/07/28 02:37:22;;;;;;;5.40;2.37;;;11.60;99.90;;;;;;5077590;28;20453;-74
2022/07/28 02:40:13;;;;;;;5.28;2.80;;;11.60;99.90;;;;;;5063361;28;20500;-73
2022/07/28 02:42:58;;;;;;;6.70;2.60;;;11.60;99.90;;;;;;5068141;28;20440;-73
2022/07/28 02:45:50;;;;;;;4.88;2.55;;;11.50;99.90;;;;;;5072308;28;20453;-75
2022/07/28 02:48:36;;;;;;;4.38;2.40;;;11.40;99.90;;;;;;5074094;28;20916;-75
2022/07/28 02:51:23;;;;;;;5.45;2.53;;;11.40;99.90;;;;;;5065829;28;20475;-73
2022/07/28 02:54:09;;;;;;;4.88;2.53;;;11.30;99.90;;;;;;5061926;28;20426;-74
2022/07/28 02:56:57;;;;;;;4.97;2.47;;;11.40;99.90;;;;;;5071400;28;20437;-74
2022/07/28 02:59:42;;;;;;;4.22;2.60;;;11.40;99.90;;;;;;5069484;28;20463;-74
2022/07/28 03:02:29;;;;;;;4.90;2.70;;;11.40;99.90;;;;;;5062501;28;20914;-74
2022/07/28 03:05:14;;;;;;;3.75;2.40;;;11.40;99.90;;;;;;5075880;28;20393;-74
2022/07/28 03:07:58;;;;;;;6.30;2.90;;;11.40;99.90;;;;;;5069326;28;20409;-73
2022/07/28 03:10:43;;;;;;;6.07;2.50;;;11.40;99.90;;;;;;5066563;28;20479;-75
2022/07/28 03:13:27;;;;;;;6.45;2.92;;;11.40;99.90;;;;;;5071328;28;20472;-73
2022/07/28 03:16:12;;;;;;;4.82;2.90;;;11.30;99.90;;;;;;5075239;28;20501;-75
2022/07/28 03:18:56;;;;;;;6.50;2.70;;;11.30;99.90;;;;;;5069536;28;20926;-73
2022/07/28 03:21:40;;;;;;;4.50;2.90;;;11.20;99.90;;;;;;5078077;28;20401;-74
2022/07/28 03:24:32;;;;;;;4.57;2.75;;;11.20;99.90;;;;;;5063678;28;20390;-74
2022/07/28 03:27:32;;;;;;;5.35;2.90;;;11.20;99.90;;;;;;5061643;28;20909;-74
2022/07/28 03:30:25;;;;;;;6.55;2.85;;;11.20;99.90;;;;;;5061882;28;20962;-73
2022/07/28 03:33:10;;;;;;;6.97;2.95;;;11.20;99.90;;;;;;5067266;28;20393;-75
2022/07/28 03:35:57;;;;;;;7.43;2.90;;;11.20;99.90;;;;;;5062123;28;20415;-73
2022/07/28 03:39:08;;;;;;;5.88;3.28;;;11.20;99.90;;;;;;5071488;28;20387;-73
2022/07/28 03:41:54;;;;;;;5.22;2.72;;;11.20;99.90;;;;;;5065783;28;20476;-76
2022/07/28 03:44:39;;;;;;;6.32;3.15;;;11.20;99.90;;;;;;5063958;28;20471;-77
2022/07/28 03:47:24;;;;;;;5.32;2.95;;;11.30;99.90;;;;;;5065193;28;20904;-75
2022/07/28 03:50:08;;;;;;;8.20;3.03;;;11.30;99.90;;;;;;5070678;28;20418;-75
2022/07/28 03:52:53;;;;;;;5.70;3.30;;;11.30;99.90;;;;;;5068773;28;20427;-76
2022/07/28 03:55:37;;;;;;;5.45;3.30;;;11.30;99.90;;;;;;5076930;28;20422;-75
2022/07/28 03:58:26;;;;;;;5.85;3.10;;;11.30;99.90;;;;;;5060307;28;20415;-75
2022/07/28 04:01:10;;;;;;;4.22;3.20;;;11.30;99.90;;;;;;5064985;28;20865;-75
2022/07/28 04:03:54;;;;;;;6.25;3.38;;;11.40;99.90;;;;;;5073246;28;20416;-76
2022/07/28 04:06:38;;;;;;;7.10;3.17;;;11.40;99.90;;;;;;5073589;28;20415;-76
2022/07/28 04:09:22;;;;;;;5.45;3.22;;;11.30;99.90;;;;;;5071252;28;20457;-75
2022/07/28 04:12:07;;;;;;;6.38;3.67;;;11.20;99.90;;;;;;5074104;28;20466;-76
2022/07/28 04:14:51;;;;;;;7.97;3.65;;;11.20;99.90;;;;;;5061020;28;20416;-76
2022/07/28 04:17:36;;;;;;;6.50;3.63;;;11.20;99.90;;;;;;5064729;28;20464;-75
2022/07/28 04:20:22;;;;;;;9.20;3.77;;;11.20;99.90;;;;;;5063776;28;20397;-76
2022/07/28 04:23:07;;;;;;;6.32;3.88;;;11.30;99.90;;;;;;5075558;28;20415;-77
2022/07/28 04:25:51;;;;;;;7.82;3.80;;;11.30;99.90;;;;;;5069921;28;20391;-76
2022/07/28 04:28:35;;;;;;;8.97;3.70;;;11.30;99.90;;;;;;5058718;28;20472;-76
2022/07/28 04:31:19;;;;;;;4.67;3.57;;;11.40;99.90;;;;;;5062500;28;20399;-76
2022/07/28 04:34:03;;;;;;;5.93;3.97;;;11.40;99.90;;;;;;5064851;28;20469;-76
2022/07/28 04:36:47;;;;;;;9.48;3.80;;;11.40;99.90;;;;;;5074230;28;20400;-76
2022/07/28 04:39:31;;;;;;;7.68;3.97;;;11.40;99.90;;;;;;5062866;28;20959;-76
2022/07/28 04:42:17;;;;;;;12.25;4.40;;;11.40;99.90;;;;;;5069543;28;20467;-75
2022/07/28 04:45:03;;;;;;;5.43;3.53;;;11.40;99.90;;;;;;5059024;28;20444;-75
2022/07/28 04:47:47;;;;;;;6.05;3.85;;;11.50;99.90;;;;;;5067880;28;20416;-75
2022/07/28 04:50:31;;;;;;;9.15;3.90;;;11.50;99.90;;;;;;5067044;28;20387;-76
2022/07/28 04:53:17;;;;;;;6.85;3.80;;;11.60;99.90;;;;;;5068029;28;20562;-76
2022/07/28 04:56:01;;;;;;;7.68;4.20;;;11.70;99.90;;;;;;5067176;28;20902;-76
2022/07/28 04:58:46;;;;;;;9.65;4.38;;;11.70;99.90;;;;;;5060660;28;20474;-76
2022/07/28 05:01:30;;;;;;;7.95;3.85;;;11.70;99.90;;;;;;5067071;28;20492;-76
2022/07/28 05:04:14;;;;;;;8.10;3.80;;;11.80;99.90;;;;;;5070449;28;20425;-77
2022/07/28 05:06:59;;;;;;;9.13;4.25;;;11.80;99.90;;;;;;5066445;28;20391;-76
2022/07/28 05:09:43;;;;;;;7.53;4.50;;;11.90;99.90;;;;;;5076472;28;20441;-77
2022/07/28 05:12:27;;;;;;;6.77;4.50;;;11.90;99.90;;;;;;5065085;28;20519;-76
2022/07/28 05:15:11;;;;;;;6.22;4.53;;;12.00;99.90;;;;;;5073358;28;20434;-75
2022/07/28 05:17:55;;;;;;;6.50;4.32;;;12.00;99.90;;;;;;5072172;28;20399;-75
2022/07/28 05:20:39;;;;;;;10.55;4.40;;;12.10;99.90;;;;;;5069226;28;20425;-77
2022/07/28 05:23:23;;;;;;;8.10;4.30;;;12.10;99.90;;;;;;5065220;28;20423;-77
2022/07/28 05:26:08;;;;;;;6.03;4.50;;;12.20;99.90;;;;;;5072426;28;20397;-76
2022/07/28 05:28:52;;;;;;;7.65;4.63;;;12.20;99.90;;;;;;5065900;28;20407;-76
2022/07/28 05:31:36;;;;;;;7.13;4.90;;;12.30;99.90;;;;;;5062879;28;20465;-76
2022/07/28 05:34:20;;;;;;;8.48;4.80;;;12.40;99.90;;;;;;5070658;28;20391;-76
2022/07/28 05:37:05;;;;;;;8.77;5.00;;;12.40;99.90;;;;;;5065746;28;20392;-76
2022/07/28 05:39:48;;;;;;;10.77;5.22;;;12.40;99.90;;;;;;5066183;28;20401;-76
2022/07/28 05:42:34;;;;;;;8.13;4.70;;;12.50;99.90;;;;;;5064616;28;20890;-76
2022/07/28 05:45:19;;;;;;;7.95;5.32;;;12.50;99.90;;;;;;5061935;28;20390;-77
2022/07/28 05:48:03;;;;;;;10.50;5.72;;;12.50;99.90;;;;;;5059975;28;20393;-76
2022/07/28 05:50:49;;;;;;;10.63;5.85;;;12.60;99.90;;;;;;5076858;28;20402;-77
2022/07/28 05:53:33;;;;;;;10.02;5.82;;;12.70;99.90;;;;;;5064472;28;20441;-77
2022/07/28 05:56:17;;;;;;;10.30;6.22;;;12.70;99.90;;;;;;5065342;28;20463;-76
2022/07/28 05:59:01;;;;;;;12.93;6.22;;;12.80;99.90;;;;;;5075569;28;20399;-75
2022/07/28 06:01:45;;;;;;;10.57;5.60;;;12.80;99.90;;;;;;5061787;28;20442;-76
2022/07/28 06:04:31;;;;;;;11.75;5.75;;;12.90;99.90;;;;;;5070524;28;20416;-76
2022/07/28 06:07:15;;;;;;;10.07;4.97;;;13.00;99.90;;;;;;5072530;28;20474;-74
2022/07/28 06:09:59;;;;;;;6.45;3.92;;;13.20;99.90;;;;;;5078674;28;20455;-76
2022/07/28 06:12:49;;;;;;;7.60;3.22;;;13.30;99.90;;;;;;5071721;28;20431;-76
2022/07/28 06:15:33;;;;;;;3.87;2.83;;;13.40;99.90;;;;;;5064324;28;20420;-76
2022/07/28 06:18:18;;;;;;;10.02;3.53;;;13.50;99.90;;;;;;5066091;28;20381;-77
2022/07/28 06:21:03;;;;;;;6.88;3.28;;;13.50;99.90;;;;;;5064971;28;20915;-75
2022/07/28 06:23:47;;;;;;;6.78;3.00;;;13.60;99.90;;;;;;5064758;28;20423;-77
2022/07/28 06:26:31;;;;;;;5.10;2.72;;;13.70;99.90;;;;;;5071244;28;20449;-75
2022/07/28 06:29:15;;;;;;;8.93;2.47;;;13.80;99.90;;;;;;5070942;28;20408;-76
2022/07/28 06:31:59;;;;;;;4.22;2.47;;;13.90;99.90;;;;;;5067609;28;20430;-77
2022/07/28 06:34:43;;;;;;;5.22;2.40;;;14.00;99.90;;;;;;5062833;28;20411;-77
2022/07/28 06:37:27;;;;;;;4.97;2.50;;;14.10;99.90;;;;;;5067472;28;20406;-77
2022/07/28 06:40:12;;;;;;;4.47;2.13;;;14.20;99.90;;;;;;5067448;28;20754;-76
2022/07/28 06:42:56;;;;;;;6.07;1.88;;;14.30;99.90;;;;;;5076731;28;20412;-76
2022/07/28 06:45:40;;;;;;;5.20;2.05;;;14.40;99.90;;;;;;5062938;28;20452;-75
2022/07/28 06:48:24;;;;;;;5.82;2.20;;;14.50;99.90;;;;;;5067314;28;20399;-74
2022/07/28 06:51:08;;;;;;;7.30;1.98;;;14.60;99.90;;;;;;5073222;28;20393;-74
2022/07/28 06:53:54;;;;;;;8.10;2.00;;;14.80;99.90;;;;;;5069178;28;20943;-73
2022/07/28 06:56:39;;;;;;;4.70;1.80;;;14.90;99.90;;;;;;5067519;28;20820;-75
2022/07/28 06:59:23;;;;;;;7.03;2.03;;;15.00;99.90;;;;;;5065436;28;20748;-74
2022/07/28 07:02:07;;;;;;;5.38;1.52;;;15.00;99.90;;;;;;5068491;28;20475;-75
2022/07/28 07:04:51;;;;;;;3.67;1.30;;;15.10;99.90;;;;;;5074597;28;20803;-74
2022/07/28 07:07:35;;;;;;;5.88;1.40;;;15.20;99.90;;;;;;5086206;28;20821;-73
2022/07/28 07:10:19;;;;;;;4.80;1.10;;;15.20;99.90;;;;;;5076826;28;20749;-73
2022/07/28 07:13:03;;;;;;;6.78;1.52;;;15.30;99.90;;;;;;5077344;28;20418;-74
2022/07/28 07:15:47;;;;;;;5.60;1.40;;;15.30;99.90;;;;;;5075572;28;20391;-73
2022/07/28 07:18:31;;;;;;;5.15;1.40;;;15.40;99.90;;;;;;5068440;28;20788;-75
2022/07/28 07:21:15;;;;;;;4.07;1.10;;;15.60;99.90;;;;;;5065243;28;20393;-74
2022/07/28 07:23:59;;;;;;;3.65;1.33;;;15.60;99.90;;;;;;5061272;28;20469;-75
2022/07/28 07:26:43;;;;;;;4.43;1.23;;;15.70;99.90;;;;;;5065493;28;20424;-75
2022/07/28 07:29:27;;;;;;;5.85;1.35;;;15.60;99.90;;;;;;5062835;28;20483;-74
2022/07/28 07:32:11;;;;;;;4.13;1.20;;;15.60;99.90;;;;;;5065609;28;20515;-74
2022/07/28 07:34:55;;;;;;;2.88;1.00;;;15.60;99.90;;;;;;5074982;28;20381;-73
2022/07/28 07:37:40;;;;;;;3.97;1.30;;;15.80;99.90;;;;;;5066722;28;20399;-74
2022/07/28 07:40:24;;;;;;;3.92;1.08;;;15.90;99.90;;;;;;5058344;28;20400;-73
2022/07/28 07:43:08;;;;;;;4.82;1.20;;;16.00;99.90;;;;;;5073487;28;20444;-75
2022/07/28 07:45:52;;;;;;;2.80;1.00;;;16.00;99.90;;;;;;5071318;28;20402;-73
2022/07/28 07:48:37;;;;;;;3.85;1.10;;;16.00;99.90;;;;;;5072559;28;20398;-74
2022/07/28 07:51:20;;;;;;;2.95;0.90;;;16.00;99.90;;;;;;5074478;28;20422;-74
2022/07/28 07:54:05;;;;;;;4.50;1.00;;;16.10;99.90;;;;;;5077204;28;20396;-74
2022/07/28 07:56:49;;;;;;;3.08;0.80;;;16.20;99.90;;;;;;5064800;28;20439;-75
2022/07/28 07:59:33;;;;;;;2.72;0.82;;;16.30;99.90;;;;;;5060830;28;20388;-74
2022/07/28 08:02:17;;;;;;;4.45;0.77;;;16.30;99.90;;;;;;5065776;28;20496;-73
2022/07/28 08:05:01;;;;;;;2.42;0.93;;;16.30;99.90;;;;;;5075851;28;20472;-74
2022/07/28 08:07:45;;;;;;;3.23;0.70;;;16.50;99.90;;;;;;5081371;28;20394;-75
2022/07/28 08:10:29;;;;;;;3.92;0.75;;;16.50;99.90;;;;;;5066756;28;20440;-72
2022/07/28 08:13:13;;;;;;;4.07;0.80;;;16.60;99.90;;;;;;5061280;28;20811;-73
2022/07/28 08:15:58;;;;;;;3.85;0.90;;;16.60;99.90;;;;;;5066171;28;20797;-73
2022/07/28 08:18:43;;;;;;;4.03;1.20;;;16.80;99.90;;;;;;5064040;28;20400;-74
2022/07/28 08:21:28;;;;;;;2.20;0.77;;;16.80;99.90;;;;;;5075401;28;20403;-73
2022/07/28 08:24:13;;;;;;;3.75;0.90;;;16.80;99.90;;;;;;5072713;28;20483;-75
2022/07/28 08:26:57;;;;;;;2.28;0.80;;;16.90;99.90;;;;;;5078011;28;20750;-74
2022/07/28 08:29:41;;;;;;;5.05;1.00;;;17.00;99.90;;;;;;5066703;28;20390;-75
2022/07/28 08:32:25;;;;;;;3.30;1.00;;;17.10;99.90;;;;;;5060915;28;20412;-73
2022/07/28 08:35:10;;;;;;;2.67;0.87;;;17.20;99.90;;;;;;5080960;28;20408;-75
2022/07/28 08:37:54;;;;;;;1.88;0.80;;;17.20;99.90;;;;;;5077239;28;20403;-74
2022/07/28 08:40:41;;;;;;;4.18;0.70;;;17.20;99.90;;;;;;5076520;28;20393;-74
2022/07/28 08:43:38;;;;;;;2.83;0.70;;;17.40;99.90;;;;;;5062759;28;20409;-74
2022/07/28 08:46:23;;;;;;;3.78;0.80;;;17.50;99.90;;;;;;5069203;28;20380;-74
2022/07/28 08:49:08;;;;;;;1.67;0.70;;;17.50;99.90;;;;;;5069776;28;20439;-75
2022/07/28 08:51:54;;;;;;;3.15;0.80;;;17.60;99.90;;;;;;5069997;28;20395;-75
2022/07/28 08:54:49;;;;;;;2.42;0.90;;;17.60;99.90;;;;;;5067559;28;20393;-75
2022/07/28 08:57:39;;;;;;;3.25;0.90;;;17.60;99.90;;;;;;5065459;28;20377;-73
2022/07/28 09:00:23;;;;;;;3.00;0.80;;;17.70;99.90;;;;;;5064012;28;20780;-74
2022/07/28 09:03:09;;;;;;;2.70;0.80;;;17.70;99.90;;;;;;5065678;28;20463;-74
2022/07/28 09:05:55;;;;;;;1.50;0.70;;;17.70;99.90;;;;;;5071013;28;20442;-74
2022/07/28 09:08:39;;;;;;;2.45;0.70;;;17.60;99.90;;;;;;5069503;28;20951;-73
2022/07/28 09:11:25;;;;;;;2.17;0.88;;;17.50;99.90;;;;;;5079293;28;20405;-75
2022/07/28 09:14:10;;;;;;;4.13;0.77;;;17.60;99.90;;;;;;5077235;28;20502;-75
2022/07/28 09:16:54;;;;;;;2.72;1.00;;;17.60;99.90;;;;;;5067765;28;20412;-75
2022/07/28 09:19:38;;;;;;;3.45;0.90;;;17.70;99.90;;;;;;5071459;28;20385;-76
2022/07/28 09:22:22;;;;;;;4.82;0.95;;;17.90;99.90;;;;;;5065706;28;20459;-74
2022/07/28 09:25:17;;;;;;;2.95;0.88;;;17.80;99.90;;;;;;5077091;28;20396;-75
2022/07/28 09:28:13;;;;;;;2.30;0.95;;;17.80;99.90;;;;;;5064944;28;20517;-74
2022/07/28 09:31:05;;;;;;;2.20;0.87;;;17.90;99.90;;;;;;5072250;28;20396;-74
2022/07/28 09:34:03;;;;;;;3.78;0.88;;;18.00;99.90;;;;;;5060174;28;20410;-75
2022/07/28 09:36:47;;;;;;;2.03;0.77;;;18.10;99.90;;;;;;5065520;28;20412;-74
2022/07/28 09:39:34;;;;;;;2.90;0.70;;;18.10;99.90;;;;;;5069133;28;20416;-74
2022/07/28 09:42:19;;;;;;;1.67;0.80;;;18.20;99.90;;;;;;5068697;28;20418;-74
2022/07/28 09:45:07;;;;;;;2.00;0.80;;;18.30;99.90;;;;;;5068932;28;20426;-74
2022/07/28 09:48:18;;;;;;;2.72;0.80;;;18.30;99.90;;;;;;5064095;28;20444;-75
2022/07/28 09:51:12;;;;;;;2.88;0.80;;;18.40;99.90;;;;;;5067410;28;20395;-74
2022/07/28 09:54:10;;;;;;;2.72;1.00;;;18.40;99.90;;;;;;5073063;28;20434;-74
2022/07/28 09:56:55;;;;;;;2.40;1.00;;;18.30;99.90;;;;;;5073573;28;20392;-75
2022/07/28 09:59:43;;;;;;;3.45;0.70;;;18.30;99.90;;;;;;5062059;28;20417;-75
2022/07/28 10:02:32;;;;;;;2.40;0.90;;;18.30;99.90;;;;;;5069725;28;20413;-75
2022/07/28 10:05:18;;;;;;;2.92;0.90;;;18.40;99.90;;;;;;5072428;28;20377;-74
2022/07/28 10:08:02;;;;;;;3.25;1.10;;;18.60;99.90;;;;;;5073814;28;20383;-77
2022/07/28 10:11:06;;;;;;;2.60;0.80;;;18.70;99.90;;;;;;5071135;28;20449;-75
2022/07/28 10:14:01;;;;;;;2.03;0.90;;;18.70;99.90;;;;;;5065209;28;20432;-74
2022/07/28 10:16:51;;;;;;;3.25;0.90;;;18.80;99.90;;;;;;5076893;28;20792;-74
2022/07/28 10:19:36;;;;;;;2.05;0.90;;;19.00;99.90;;;;;;5067171;28;20451;-74
2022/07/28 10:22:23;;;;;;;1.52;0.55;;;19.00;99.90;;;;;;5070411;28;20204;-74
2022/07/28 10:25:11;;;;;;;1.58;0.85;;;19.10;99.90;;;;;;5065507;28;20248;-76
2022/07/28 10:28:01;;;;;;;4.40;0.70;;;19.20;99.90;;;;;;5061435;28;20249;-77
2022/07/28 10:30:48;;;;;;;0.93;0.50;;;19.20;99.90;;;;;;5067702;28;20224;-76
2022/07/28 10:33:32;;;;;;;2.50;0.83;;;19.10;99.90;;;;;;5054408;28;20198;-74
2022/07/28 10:36:22;;;;;;;1.70;0.60;;;19.10;99.90;;;;;;5067634;28;20185;-75
2022/07/28 10:39:17;;;;;;;2.30;0.80;;;19.20;99.90;;;;;;5062960;28;20256;-78
2022/07/28 10:42:02;;;;;;;1.48;0.52;;;19.30;99.90;;;;;;5075156;28;20189;-74
2022/07/28 10:44:47;;;;;;;2.30;0.70;;;19.30;99.90;;;;;;5064486;28;20406;-79
2022/07/28 10:47:31;;;;;;;1.98;0.50;;;19.40;99.90;;;;;;5075581;28;20185;-73
2022/07/28 10:50:17;;;;;;;2.33;0.80;;;19.40;99.90;;;;;;5068040;28;20390;-74
2022/07/28 10:53:02;;;;;;;3.03;0.80;;;19.40;99.90;;;;;;5067892;28;20406;-73
2022/07/28 10:55:57;;;;;;;3.30;0.82;;;19.60;99.90;;;;;;5066478;28;20886;-79
2022/07/28 10:58:48;;;;;;;3.45;0.90;;;19.70;99.90;;;;;;5073761;28;20737;-75
2022/07/28 11:01:37;;;;;;;2.33;0.70;;;19.70;99.90;;;;;;5071623;28;20210;-75
2022/07/28 11:04:40;;;;;;;2.38;0.82;;;19.70;99.90;;;;;;5076934;28;20213;-76
2022/07/28 11:07:37;;;;;;;0.90;0.57;;;19.70;99.90;;;;;;5072569;28;20249;-75
2022/07/28 11:10:22;;;;;;;1.65;0.60;;;19.70;99.90;;;;;;5068303;28;20186;-75
2022/07/28 11:13:06;;;;;;;1.55;0.45;;;19.80;99.90;;;;;;5066500;28;20198;-75
2022/07/28 11:15:50;;;;;;;2.75;0.65;;;19.90;99.90;;;;;;5072933;28;20205;-75
2022/07/28 11:19:11;;;;;;;2.38;0.60;;;20.00;99.90;;;;;;5062808;28;20226;-75
2022/07/28 11:22:14;;;;;;;1.80;0.90;;;20.00;99.90;;;;;;5070779;28;20190;-77
2022/07/28 11:27:44;;;;;;;0.73;0.60;;;20.00;99.90;;;;;;5071744;28;20221;-76
2022/07/28 11:30:48;;;;;;;2.63;0.60;;;20.00;99.90;;;;;;5081072;28;20180;-75
2022/07/28 11:33:55;;;;;;;0.88;0.63;;;20.00;99.90;;;;;;5068948;28;20559;-77
2022/07/28 11:37:03;;;;;;;2.20;0.60;;;20.00;99.90;;;;;;5065846;28;20200;-77
2022/07/28 11:39:47;;;;;;;1.48;0.68;;;19.90;99.90;;;;;;5069931;28;20185;-75
2022/07/28 11:42:31;;;;;;;0.80;0.60;;;20.00;99.90;;;;;;5066989;28;20237;-77
2022/07/28 11:45:23;;;;;;;2.55;0.57;;;20.00;99.90;;;;;;5069282;28;20221;-78
2022/07/28 11:48:22;;;;;;;1.85;0.55;;;20.00;99.90;;;;;;5081447;28;20290;-77
2022/07/28 11:51:06;;;;;;;0.88;0.60;;;20.10;99.90;;;;;;5084049;28;20189;-75
2022/07/28 11:53:51;;;;;;;2.67;0.68;;;20.00;99.90;;;;;;5075926;28;20193;-75
2022/07/28 11:56:36;;;;;;;2.10;0.80;;;20.00;99.90;;;;;;5084081;28;20193;-78
2022/07/28 11:59:20;;;;;;;2.08;0.55;;;20.10;99.90;;;;;;5066453;28;20234;-77
2022/07/28 12:02:04;;;;;;;3.55;0.75;;;20.10;99.90;;;;;;5072616;28;20233;-78
2022/07/28 12:04:59;;;;;;;1.40;0.80;;;20.20;99.90;;;;;;5062513;28;20233;-84
2022/07/28 12:07:47;;;;;;;1.27;0.68;;;20.30;99.90;;;;;;5065376;28;20690;-76
2022/07/28 12:10:34;;;;;;;2.83;0.55;;;20.40;99.90;;;;;;5060540;28;20190;-77
2022/07/28 12:13:25;;;;;;;1.90;0.60;;;20.50;99.90;;;;;;5078191;28;20198;-79
2022/07/28 12:16:10;;;;;;;1.40;0.55;;;20.60;99.90;;;;;;5064154;28;20202;-74
2022/07/28 12:18:55;;;;;;;2.08;0.70;;;20.60;99.90;;;;;;5067077;28;20242;-76
2022/07/28 12:21:45;;;;;;;1.52;0.55;;;20.60;99.90;;;;;;5072344;28;20259;-76
2022/07/28 12:24:32;;;;;;;0.70;0.50;;;20.70;99.90;;;;;;5076655;28;20217;-80
2022/07/28 12:27:25;;;;;;;2.47;0.60;;;20.80;99.90;;;;;;5075519;28;20232;-78
2022/07/28 12:30:11;;;;;;;0.68;0.63;;;20.80;99.90;;;;;;5060866;28;20712;-77
2022/07/28 12:32:55;;;;;;;2.55;0.60;;;20.80;99.90;;;;;;5069794;28;20217;-75
2022/07/28 12:35:40;;;;;;;2.25;0.60;;;20.80;99.90;;;;;;5069088;28;20240;-77
2022/07/28 12:38:26;;;;;;;1.48;0.60;;;20.90;99.90;;;;;;5076457;28;20245;-77
2022/07/28 12:41:14;;;;;;;1.05;0.80;;;20.90;99.90;;;;;;5063336;28;20287;-75
2022/07/28 12:43:59;;;;;;;1.50;0.40;;;20.90;99.90;;;;;;5076082;28;20294;-78
2022/07/28 12:46:47;;;;;;;0.75;0.50;;;20.90;99.90;;;;;;5074438;28;20197;-77
2022/07/28 12:49:32;;;;;;;1.92;0.60;;;20.90;99.90;;;;;;5067813;28;20249;-77
2022/07/28 12:52:21;;;;;;;0.55;0.50;;;20.90;99.90;;;;;;5065254;28;20262;-77
2022/07/28 12:55:20;;;;;;;0.50;0.50;;;21.00;99.90;;;;;;5065563;28;20214;-76
2022/07/28 12:58:05;;;;;;;2.58;0.65;;;21.00;99.90;;;;;;5074989;28;20260;-74
2022/07/28 13:00:51;;;;;;;0.82;0.40;;;21.00;99.90;;;;;;5073795;28;20186;-75
2022/07/28 13:03:43;;;;;;;0.65;0.57;;;21.10;99.90;;;;;;5059400;28;20586;-75
2022/07/28 13:06:28;;;;;;;2.10;0.60;;;21.20;99.90;;;;;;5070941;28;20235;-74
2022/07/28 13:09:22;;;;;;;1.15;0.68;;;21.20;99.90;;;;;;5057766;28;20213;-77
2022/07/28 13:12:17;;;;;;;2.42;0.60;;;21.30;99.90;;;;;;5072832;28;20215;-77
2022/07/28 13:15:09;;;;;;;4.20;0.80;;;21.40;99.90;;;;;;5074578;28;20265;-77
2022/07/28 13:17:55;;;;;;;1.30;0.50;;;21.40;99.90;;;;;;5076877;28;20214;-77
2022/07/28 13:20:50;;;;;;;2.10;0.40;;;21.40;99.90;;;;;;5067578;28;20665;-75
2022/07/28 13:23:35;;;;;;;2.20;0.65;;;21.40;99.90;;;;;;5069631;28;20222;-75
2022/07/28 13:26:19;;;;;;;0.90;0.50;;;21.30;99.90;;;;;;5069783;28;20224;-75
2022/07/28 13:29:04;;;;;;;1.95;0.60;;;21.30;99.90;;;;;;5070862;28;20214;-74
2022/07/28 13:31:48;;;;;;;1.65;0.57;;;21.30;99.90;;;;;;5070680;28;20189;-75
2022/07/28 13:34:32;;;;;;;2.67;0.60;;;21.40;99.90;;;;;;5060577;28;20191;-75
2022/07/28 13:37:17;;;;;;;3.15;0.60;;;21.40;99.90;;;;;;5068449;28;20213;-74
2022/07/28 13:40:01;;;;;;;1.42;0.65;;;21.40;99.90;;;;;;5070600;28;20178;-74
2022/07/28 13:42:45;;;;;;;5.75;0.73;;;21.40;99.90;;;;;;5073404;28;20221;-75
2022/07/28 13:45:29;;;;;;;1.45;0.63;;;21.50;99.90;;;;;;5067162;28;20197;-75
2022/07/28 13:48:13;;;;;;;2.03;0.45;;;21.50;99.90;;;;;;5057832;28;20218;-75
2022/07/28 13:50:57;;;;;;;1.08;0.60;;;21.60;99.90;;;;;;5071041;28;20182;-75
2022/07/28 13:53:41;;;;;;;2.65;1.02;;;21.70;99.90;;;;;;5078833;28;20259;-74
2022/07/28 13:56:26;;;;;;;0.65;0.57;;;21.60;99.90;;;;;;5061936;28;20570;-75
2022/07/28 13:59:11;;;;;;;1.08;0.60;;;21.70;99.90;;;;;;5069717;28;20589;-75
2022/07/28 14:01:56;;;;;;;2.72;0.63;;;21.70;99.90;;;;;;5075349;28;20217;-75
2022/07/28 14:04:40;;;;;;;3.65;0.70;;;21.70;99.90;;;;;;5064640;28;20206;-76
2022/07/28 14:07:24;;;;;;;2.28;0.63;;;21.70;99.90;;;;;;5074428;28;20250;-75
2022/07/28 14:10:09;;;;;;;2.53;0.60;;;21.70;99.90;;;;;;5069816;28;20193;-75
2022/07/28 14:12:53;;;;;;;2.17;0.90;;;21.70;99.90;;;;;;5067727;28;20193;-74
2022/07/28 14:15:37;;;;;;;2.10;0.98;;;21.70;99.90;;;;;;5074487;28;20221;-75
2022/07/28 14:18:22;;;;;;;1.10;0.50;;;21.80;99.90;;;;;;5065114;28;20259;-75
2022/07/28 14:21:07;;;;;;;2.42;0.85;;;21.80;99.90;;;;;;5079327;28;20689;-76
2022/07/28 14:23:52;;;;;;;1.80;0.63;;;21.80;99.90;;;;;;5062119;28;20260;-76
2022/07/28 14:26:36;;;;;;;1.05;0.70;;;21.80;99.90;;;;;;5078658;28;20245;-73
2022/07/28 14:29:20;;;;;;;0.88;0.43;;;21.90;99.90;;;;;;5061712;28;20213;-75